sensor_id;sensor_type;location;lat;lon;timestamp;pressure;altitude;pressure_sealevel;temperature;humidity
7660;BME280;3872;47.902;8.162;2022-11-21T00:00:53;91267.53;;;3.18;100.00
7660;BME280;3872;47.902;8.162;2022-11-21T00:03:21;91261.31;;;3.08;100.00
7660;BME280;3872;47.902;8.162;2022-11-21T00:05:48;91262.28;;;3.28;100.00
7660;BME280;3872;47.902;8.162;2022-11-21T00:08:17;91268.09;;;2.89;100.00
7660;BME280;3872;47.902;8.162;2022-11-21T00:10:44;91269.66;;;3.05;100.00
7660;BME280;3872;47.902;8.162;2022-11-21T00:13:13;91256.09;;;3.24;100.00
7660;BME280;3872;47.902;8.162;2022-11-21T00:15:39;91256.41;;;2.97;100.00
7660;BME280;3872;47.902;8.162;2022-11-21T00:18:06;91255.75;;;3.45;100.00
7660;BME280;3872;47.902;8.162;2022-11-21T00:20:34;91257.31;;;3.41;100.00
7660;BME280;3872;47.902;8.162;2022-11-21T00:23:01;91259.59;;;3.58;100.00
7660;BME280;3872;47.902;8.162;2022-11-21T00:25:28;91260.69;;;3.52;100.00
7660;BME280;3872;47.902;8.162;2022-11-21T00:27:54;91270.88;;;3.38;100.00
7660;BME280;3872;47.902;8.162;2022-11-21T00:30:21;91259.31;;;3.65;100.00
7660;BME280;3872;47.902;8.162;2022-11-21T00:32:47;91258.94;;;3.22;100.00
7660;BME280;3872;47.902;8.162;2022-11-21T00:35:14;91251.03;;;3.58;100.00
7660;BME280;3872;47.902;8.162;2022-11-21T00:37:42;91232.91;;;3.37;100.00
7660;BME280;3872;47.902;8.162;2022-11-21T00:40:10;91232.75;;;3.73;100.00
7660;BME280;3872;47.902;8.162;2022-11-21T00:42:36;91229.38;;;3.72;100.00
7660;BME280;3872;47.902;8.162;2022-11-21T00:45:04;91230.41;;;3.71;100.00
7660;BME280;3872;47.902;8.162;2022-11-21T00:47:30;91229.91;;;3.64;100.00
7660;BME280;3872;47.902;8.162;2022-11-21T00:49:57;91221.88;;;3.55;100.00
7660;BME280;3872;47.902;8.162;2022-11-21T00:52:23;91220.09;;;3.51;100.00
7660;BME280;3872;47.902;8.162;2022-11-21T00:54:51;91212.34;;;3.41;100.00
7660;BME280;3872;47.902;8.162;2022-11-21T00:57:18;91210.56;;;3.31;100.00
7660;BME280;3872;47.902;8.162;2022-11-21T00:59:44;91196.50;;;3.32;100.00
7660;BME280;3872;47.902;8.162;2022-11-21T01:02:11;91187.84;;;3.52;100.00
7660;BME280;3872;47.902;8.162;2022-11-21T01:04:38;91178.31;;;3.81;100.00
7660;BME280;3872;47.902;8.162;2022-11-21T01:07:04;91170.75;;;3.85;100.00
7660;BME280;3872;47.902;8.162;2022-11-21T01:09:31;91166.31;;;3.85;100.00
7660;BME280;3872;47.902;8.162;2022-11-21T01:11:59;91163.53;;;3.23;100.00
7660;BME280;3872;47.902;8.162;2022-11-21T01:14:25;91160.91;;;3.28;100.00
7660;BME280;3872;47.902;8.162;2022-11-21T01:16:52;91153.47;;;3.01;100.00
7660;BME280;3872;47.902;8.162;2022-11-21T01:19:18;91134.47;;;3.60;100.00
7660;BME280;3872;47.902;8.162;2022-11-21T01:21:45;91136.38;;;3.44;100.00
7660;BME280;3872;47.902;8.162;2022-11-21T01:24:11;91143.06;;;3.01;100.00
7660;BME280;3872;47.902;8.162;2022-11-21T01:26:38;91131.81;;;3.21;100.00
7660;BME280;3872;47.902;8.162;2022-11-21T01:29:07;91121.94;;;3.18;100.00
7660;BME280;3872;47.902;8.162;2022-11-21T01:31:34;91114.56;;;3.40;100.00
7660;BME280;3872;47.902;8.162;2022-11-21T01:34:01;91112.44;;;3.42;100.00
7660;BME280;3872;47.902;8.162;2022-11-21T01:36:29;91132.78;;;3.40;100.00
7660;BME280;3872;47.902;8.162;2022-11-21T01:38:57;91130.84;;;3.55;100.00
7660;BME280;3872;47.902;8.162;2022-11-21T01:41:26;91119.78;;;3.35;100.00
7660;BME280;3872;47.902;8.162;2022-11-21T01:43:55;91122.38;;;3.35;100.00
7660;BME280;3872;47.902;8.162;2022-11-21T01:46:25;91120.06;;;3.33;100.00
7660;BME280;3872;47.902;8.162;2022-11-21T01:48:56;91111.28;;;3.19;100.00
7660;BME280;3872;47.902;8.162;2022-11-21T01:51:29;91115.31;;;2.91;100.00
7660;BME280;3872;47.902;8.162;2022-11-21T01:54:00;91107.56;;;3.35;100.00
7660;BME280;3872;47.902;8.162;2022-11-21T01:56:29;91101.81;;;3.38;100.00
7660;BME280;3872;47.902;8.162;2022-11-21T01:59:02;91102.44;;;3.20;100.00
7660;BME280;3872;47.902;8.162;2022-11-21T02:01:31;91100.22;;;2.98;100.00
7660;BME280;3872;47.902;8.162;2022-11-21T02:04:01;91098.31;;;3.58;100.00
7660;BME280;3872;47.902;8.162;2022-11-21T02:06:30;91110.81;;;3.56;100.00
7660;BME280;3872;47.902;8.162;2022-11-21T02:08:58;91117.53;;;3.18;100.00
7660;BME280;3872;47.902;8.162;2022-11-21T02:11:29;91089.38;;;3.74;100.00
7660;BME280;3872;47.902;8.162;2022-11-21T02:13:58;91096.34;;;3.79;100.00
7660;BME280;3872;47.902;8.162;2022-11-21T02:16:25;91100.31;;;3.76;100.00
7660;BME280;3872;47.902;8.162;2022-11-21T02:18:54;91102.38;;;3.74;100.00
7660;BME280;3872;47.902;8.162;2022-11-21T02:21:26;91079.50;;;3.71;100.00
7660;BME280;3872;47.902;8.162;2022-11-21T02:24:00;91080.91;;;3.92;100.00
7660;BME280;3872;47.902;8.162;2022-11-21T02:26:30;91089.63;;;4.12;100.00
7660;BME280;3872;47.902;8.162;2022-11-21T02:28:57;91084.88;;;4.19;100.00
7660;BME280;3872;47.902;8.162;2022-11-21T02:31:24;91071.59;;;4.15;100.00
7660;BME280;3872;47.902;8.162;2022-11-21T02:33:50;91073.22;;;4.11;100.00
7660;BME280;3872;47.902;8.162;2022-11-21T02:36:32;91072.81;;;3.94;100.00
7660;BME280;3872;47.902;8.162;2022-11-21T02:39:00;91069.47;;;4.22;100.00
7660;BME280;3872;47.902;8.162;2022-11-21T02:41:29;91076.91;;;3.71;100.00
7660;BME280;3872;47.902;8.162;2022-11-21T02:44:03;91075.38;;;3.99;100.00
7660;BME280;3872;47.902;8.162;2022-11-21T02:46:33;91079.13;;;3.49;100.00
7660;BME280;3872;47.902;8.162;2022-11-21T02:49:03;91065.34;;;4.16;100.00
7660;BME280;3872;47.902;8.162;2022-11-21T02:51:31;91061.25;;;4.05;100.00
7660;BME280;3872;47.902;8.162;2022-11-21T02:53:58;91066.00;;;4.03;100.00
7660;BME280;3872;47.902;8.162;2022-11-21T02:56:24;91070.31;;;4.13;100.00
7660;BME280;3872;47.902;8.162;2022-11-21T02:58:52;91079.59;;;3.56;100.00
7660;BME280;3872;47.902;8.162;2022-11-21T03:01:19;91054.81;;;3.69;100.00
7660;BME280;3872;47.902;8.162;2022-11-21T03:03:45;91051.16;;;4.04;100.00
7660;BME280;3872;47.902;8.162;2022-11-21T03:06:12;91048.44;;;3.85;100.00
7660;BME280;3872;47.902;8.162;2022-11-21T03:08:39;91043.41;;;3.93;100.00
7660;BME280;3872;47.902;8.162;2022-11-21T03:11:05;91031.72;;;3.57;100.00
7660;BME280;3872;47.902;8.162;2022-11-21T03:13:32;91037.31;;;3.40;100.00
7660;BME280;3872;47.902;8.162;2022-11-21T03:16:00;91036.03;;;3.38;100.00
7660;BME280;3872;47.902;8.162;2022-11-21T03:18:26;91035.63;;;3.60;100.00
7660;BME280;3872;47.902;8.162;2022-11-21T03:20:53;91024.50;;;3.49;100.00
7660;BME280;3872;47.902;8.162;2022-11-21T03:23:19;91024.63;;;3.34;100.00
7660;BME280;3872;47.902;8.162;2022-11-21T03:25:46;91034.28;;;3.67;100.00
7660;BME280;3872;47.902;8.162;2022-11-21T03:28:12;91046.44;;;3.72;100.00
7660;BME280;3872;47.902;8.162;2022-11-21T03:30:39;91033.56;;;3.90;100.00
7660;BME280;3872;47.902;8.162;2022-11-21T03:33:07;91040.91;;;3.83;100.00
7660;BME280;3872;47.902;8.162;2022-11-21T03:35:34;91043.72;;;3.87;100.00
7660;BME280;3872;47.902;8.162;2022-11-21T03:38:00;91021.59;;;3.89;100.00
7660;BME280;3872;47.902;8.162;2022-11-21T03:40:27;91035.41;;;3.90;100.00
7660;BME280;3872;47.902;8.162;2022-11-21T03:42:54;91017.75;;;4.11;100.00
7660;BME280;3872;47.902;8.162;2022-11-21T03:45:20;91023.28;;;4.04;100.00
7660;BME280;3872;47.902;8.162;2022-11-21T03:47:47;91034.72;;;3.74;100.00
7660;BME280;3872;47.902;8.162;2022-11-21T03:50:15;91031.44;;;3.92;100.00
7660;BME280;3872;47.902;8.162;2022-11-21T03:52:43;91041.25;;;3.72;100.00
7660;BME280;3872;47.902;8.162;2022-11-21T03:55:09;91038.28;;;3.49;100.00
7660;BME280;3872;47.902;8.162;2022-11-21T03:57:37;91036.00;;;4.06;100.00
7660;BME280;3872;47.902;8.162;2022-11-21T04:00:05;91038.41;;;4.02;100.00
7660;BME280;3872;47.902;8.162;2022-11-21T04:02:32;91035.53;;;4.04;100.00
7660;BME280;3872;47.902;8.162;2022-11-21T04:04:58;91035.47;;;3.46;100.00
7660;BME280;3872;47.902;8.162;2022-11-21T04:07:27;91038.63;;;4.06;100.00
7660;BME280;3872;47.902;8.162;2022-11-21T04:09:54;91041.59;;;3.94;100.00
7660;BME280;3872;47.902;8.162;2022-11-21T04:12:21;91040.50;;;4.00;100.00
7660;BME280;3872;47.902;8.162;2022-11-21T04:14:47;91057.25;;;3.55;100.00
7660;BME280;3872;47.902;8.162;2022-11-21T04:17:14;91069.31;;;3.36;100.00
7660;BME280;3872;47.902;8.162;2022-11-21T04:19:41;91079.53;;;3.22;100.00
7660;BME280;3872;47.902;8.162;2022-11-21T04:22:07;91077.81;;;3.02;100.00
7660;BME280;3872;47.902;8.162;2022-11-21T04:24:35;91074.72;;;3.05;100.00
7660;BME280;3872;47.902;8.162;2022-11-21T04:27:02;91077.16;;;2.71;100.00
7660;BME280;3872;47.902;8.162;2022-11-21T04:29:28;91080.09;;;2.45;100.00
7660;BME280;3872;47.902;8.162;2022-11-21T04:31:55;91082.53;;;2.95;100.00
7660;BME280;3872;47.902;8.162;2022-11-21T04:34:21;91099.72;;;2.86;100.00
7660;BME280;3872;47.902;8.162;2022-11-21T04:36:48;91107.63;;;2.46;100.00
7660;BME280;3872;47.902;8.162;2022-11-21T04:39:14;91092.81;;;2.61;100.00
7660;BME280;3872;47.902;8.162;2022-11-21T04:41:42;91086.63;;;3.06;100.00
7660;BME280;3872;47.902;8.162;2022-11-21T04:44:09;91085.66;;;3.46;100.00
7660;BME280;3872;47.902;8.162;2022-11-21T04:46:35;91090.00;;;3.56;100.00
7660;BME280;3872;47.902;8.162;2022-11-21T04:49:02;91093.16;;;3.53;100.00
7660;BME280;3872;47.902;8.162;2022-11-21T04:51:29;91089.81;;;3.47;100.00
7660;BME280;3872;47.902;8.162;2022-11-21T04:53:55;91080.50;;;3.36;100.00
7660;BME280;3872;47.902;8.162;2022-11-21T04:56:22;91076.41;;;3.25;100.00
7660;BME280;3872;47.902;8.162;2022-11-21T04:58:51;91071.50;;;3.63;100.00
7660;BME280;3872;47.902;8.162;2022-11-21T05:01:18;91072.69;;;3.80;100.00
7660;BME280;3872;47.902;8.162;2022-11-21T05:03:44;91077.31;;;3.49;100.00
7660;BME280;3872;47.902;8.162;2022-11-21T05:06:11;91067.72;;;3.79;100.00
7660;BME280;3872;47.902;8.162;2022-11-21T05:08:38;91060.34;;;3.62;100.00
7660;BME280;3872;47.902;8.162;2022-11-21T05:11:04;91072.25;;;3.63;100.00
7660;BME280;3872;47.902;8.162;2022-11-21T05:13:52;91076.78;;;3.52;100.00
7660;BME280;3872;47.902;8.162;2022-11-21T05:16:19;91068.22;;;3.03;100.00
7660;BME280;3872;47.902;8.162;2022-11-21T05:18:46;91071.63;;;3.42;100.00
7660;BME280;3872;47.902;8.162;2022-11-21T05:21:12;91064.81;;;3.51;100.00
7660;BME280;3872;47.902;8.162;2022-11-21T05:23:39;91058.84;;;3.02;100.00
7660;BME280;3872;47.902;8.162;2022-11-21T05:26:05;91065.53;;;3.18;100.00
7660;BME280;3872;47.902;8.162;2022-11-21T05:28:32;91064.50;;;3.19;100.00
7660;BME280;3872;47.902;8.162;2022-11-21T05:31:00;91060.34;;;3.18;100.00
7660;BME280;3872;47.902;8.162;2022-11-21T05:33:27;91067.09;;;3.19;100.00
7660;BME280;3872;47.902;8.162;2022-11-21T05:35:53;91061.00;;;3.39;100.00
7660;BME280;3872;47.902;8.162;2022-11-21T05:38:20;91065.00;;;3.21;100.00
7660;BME280;3872;47.902;8.162;2022-11-21T05:40:46;91058.16;;;3.35;100.00
7660;BME280;3872;47.902;8.162;2022-11-21T05:43:13;91067.41;;;3.51;100.00
7660;BME280;3872;47.902;8.162;2022-11-21T05:45:57;91058.22;;;3.64;100.00
7660;BME280;3872;47.902;8.162;2022-11-21T05:48:26;91059.47;;;3.33;100.00
7660;BME280;3872;47.902;8.162;2022-11-21T05:50:53;91065.75;;;3.66;100.00
7660;BME280;3872;47.902;8.162;2022-11-21T05:53:20;91070.25;;;3.55;100.00
7660;BME280;3872;47.902;8.162;2022-11-21T05:55:46;91067.63;;;3.16;100.00
7660;BME280;3872;47.902;8.162;2022-11-21T05:58:13;91064.59;;;3.48;100.00
7660;BME280;3872;47.902;8.162;2022-11-21T06:00:39;91059.78;;;3.65;100.00
7660;BME280;3872;47.902;8.162;2022-11-21T06:03:07;91057.50;;;3.14;100.00
7660;BME280;3872;47.902;8.162;2022-11-21T06:05:57;91067.25;;;2.89;100.00
7660;BME280;3872;47.902;8.162;2022-11-21T06:08:24;91059.19;;;2.90;100.00
7660;BME280;3872;47.902;8.162;2022-11-21T06:10:51;91064.03;;;3.07;100.00
7660;BME280;3872;47.902;8.162;2022-11-21T06:13:18;91064.84;;;3.02;100.00
7660;BME280;3872;47.902;8.162;2022-11-21T06:15:51;91063.00;;;3.03;100.00
7660;BME280;3872;47.902;8.162;2022-11-21T06:18:19;91071.53;;;3.19;100.00
7660;BME280;3872;47.902;8.162;2022-11-21T06:20:46;91061.78;;;3.39;100.00
7660;BME280;3872;47.902;8.162;2022-11-21T06:23:14;91063.34;;;3.40;100.00
7660;BME280;3872;47.902;8.162;2022-11-21T06:25:41;91059.50;;;3.28;100.00
7660;BME280;3872;47.902;8.162;2022-11-21T06:28:08;91059.47;;;3.33;100.00
7660;BME280;3872;47.902;8.162;2022-11-21T06:30:35;91056.03;;;2.93;100.00
7660;BME280;3872;47.902;8.162;2022-11-21T06:33:03;91054.59;;;3.21;100.00
7660;BME280;3872;47.902;8.162;2022-11-21T06:35:29;91050.50;;;3.10;100.00
7660;BME280;3872;47.902;8.162;2022-11-21T06:37:56;91056.38;;;3.31;100.00
7660;BME280;3872;47.902;8.162;2022-11-21T06:40:24;91047.03;;;2.70;100.00
7660;BME280;3872;47.902;8.162;2022-11-21T06:42:51;91048.63;;;2.66;100.00
7660;BME280;3872;47.902;8.162;2022-11-21T06:45:17;91047.75;;;2.91;100.00
7660;BME280;3872;47.902;8.162;2022-11-21T06:47:44;91054.22;;;2.94;100.00
7660;BME280;3872;47.902;8.162;2022-11-21T06:50:11;91039.38;;;2.99;100.00
7660;BME280;3872;47.902;8.162;2022-11-21T06:52:37;91034.16;;;3.04;100.00
7660;BME280;3872;47.902;8.162;2022-11-21T06:55:05;91047.53;;;2.83;100.00
7660;BME280;3872;47.902;8.162;2022-11-21T06:57:33;91043.28;;;2.97;100.00
7660;BME280;3872;47.902;8.162;2022-11-21T06:59:59;91054.91;;;3.09;100.00
7660;BME280;3872;47.902;8.162;2022-11-21T07:02:26;91060.00;;;2.81;100.00
7660;BME280;3872;47.902;8.162;2022-11-21T07:04:54;91056.03;;;2.93;100.00
7660;BME280;3872;47.902;8.162;2022-11-21T07:07:22;91055.06;;;2.79;100.00
7660;BME280;3872;47.902;8.162;2022-11-21T07:09:49;91049.28;;;2.92;100.00
7660;BME280;3872;47.902;8.162;2022-11-21T07:12:15;91046.56;;;3.18;100.00
7660;BME280;3872;47.902;8.162;2022-11-21T07:15:10;91046.88;;;3.06;100.00
7660;BME280;3872;47.902;8.162;2022-11-21T07:17:36;91048.25;;;3.37;100.00
7660;BME280;3872;47.902;8.162;2022-11-21T07:20:04;91047.34;;;3.13;100.00
7660;BME280;3872;47.902;8.162;2022-11-21T07:22:30;91040.97;;;2.95;100.00
7660;BME280;3872;47.902;8.162;2022-11-21T07:24:57;91036.75;;;3.04;100.00
7660;BME280;3872;47.902;8.162;2022-11-21T07:27:24;91030.22;;;3.12;100.00
7660;BME280;3872;47.902;8.162;2022-11-21T07:29:50;91029.78;;;2.95;100.00
7660;BME280;3872;47.902;8.162;2022-11-21T07:32:18;91028.19;;;3.04;100.00
7660;BME280;3872;47.902;8.162;2022-11-21T07:34:44;91033.13;;;3.00;100.00
7660;BME280;3872;47.902;8.162;2022-11-21T07:37:11;91031.22;;;3.16;100.00
7660;BME280;3872;47.902;8.162;2022-11-21T07:39:38;91028.41;;;3.07;100.00
7660;BME280;3872;47.902;8.162;2022-11-21T07:42:05;91025.53;;;2.60;100.00
7660;BME280;3872;47.902;8.162;2022-11-21T07:44:32;91026.66;;;2.98;100.00
7660;BME280;3872;47.902;8.162;2022-11-21T07:46:58;91024.78;;;3.08;100.00
7660;BME280;3872;47.902;8.162;2022-11-21T07:49:27;91023.69;;;3.14;100.00
7660;BME280;3872;47.902;8.162;2022-11-21T07:51:53;91026.56;;;3.13;100.00
7660;BME280;3872;47.902;8.162;2022-11-21T07:54:20;91028.94;;;3.09;100.00
7660;BME280;3872;47.902;8.162;2022-11-21T07:56:47;91017.00;;;3.03;100.00
7660;BME280;3872;47.902;8.162;2022-11-21T07:59:13;91016.94;;;3.19;100.00
7660;BME280;3872;47.902;8.162;2022-11-21T08:01:40;91028.41;;;3.07;100.00
7660;BME280;3872;47.902;8.162;2022-11-21T08:04:06;91015.75;;;3.35;100.00
7660;BME280;3872;47.902;8.162;2022-11-21T08:06:34;91017.50;;;3.10;100.00
7660;BME280;3872;47.902;8.162;2022-11-21T08:09:01;91028.44;;;3.41;100.00
7660;BME280;3872;47.902;8.162;2022-11-21T08:11:28;91028.41;;;3.51;100.00
7660;BME280;3872;47.902;8.162;2022-11-21T08:13:55;91027.44;;;3.37;100.00
7660;BME280;3872;47.902;8.162;2022-11-21T08:16:23;91033.63;;;3.07;100.00
7660;BME280;3872;47.902;8.162;2022-11-21T08:18:52;91029.00;;;3.38;100.00
7660;BME280;3872;47.902;8.162;2022-11-21T08:21:18;91028.94;;;3.48;100.00
7660;BME280;3872;47.902;8.162;2022-11-21T08:23:47;91027.16;;;3.78;100.00
7660;BME280;3872;47.902;8.162;2022-11-21T08:26:14;91021.31;;;3.91;100.00
7660;BME280;3872;47.902;8.162;2022-11-21T08:28:41;91016.41;;;3.89;100.00
7660;BME280;3872;47.902;8.162;2022-11-21T08:31:08;91018.50;;;3.87;100.00
7660;BME280;3872;47.902;8.162;2022-11-21T08:33:34;91002.28;;;4.19;100.00
7660;BME280;3872;47.902;8.162;2022-11-21T08:36:02;91004.81;;;4.01;100.00
7660;BME280;3872;47.902;8.162;2022-11-21T08:38:29;91014.59;;;4.14;100.00
7660;BME280;3872;47.902;8.162;2022-11-21T08:40:57;91002.94;;;3.77;100.00
7660;BME280;3872;47.902;8.162;2022-11-21T08:43:41;91005.19;;;4.42;100.00
7660;BME280;3872;47.902;8.162;2022-11-21T08:46:08;90991.56;;;4.26;100.00
7660;BME280;3872;47.902;8.162;2022-11-21T08:48:35;90993.88;;;4.04;100.00
7660;BME280;3872;47.902;8.162;2022-11-21T08:51:01;90989.63;;;3.84;100.00
7660;BME280;3872;47.902;8.162;2022-11-21T08:53:28;90992.31;;;3.74;100.00
7660;BME280;3872;47.902;8.162;2022-11-21T08:55:55;90979.50;;;4.06;100.00
7660;BME280;3872;47.902;8.162;2022-11-21T08:58:22;90974.59;;;4.05;100.00
7660;BME280;3872;47.902;8.162;2022-11-21T09:00:49;90975.56;;;3.85;100.00
7660;BME280;3872;47.902;8.162;2022-11-21T09:03:16;90980.09;;;4.03;100.00
7660;BME280;3872;47.902;8.162;2022-11-21T09:05:42;90973.16;;;4.65;100.00
7660;BME280;3872;47.902;8.162;2022-11-21T09:08:09;90964.44;;;4.75;100.00
7660;BME280;3872;47.902;8.162;2022-11-21T09:10:36;90970.63;;;4.79;100.00
7660;BME280;3872;47.902;8.162;2022-11-21T09:13:03;90965.31;;;4.22;100.00
7660;BME280;3872;47.902;8.162;2022-11-21T09:15:31;90961.31;;;4.72;100.00
7660;BME280;3872;47.902;8.162;2022-11-21T09:18:15;90951.56;;;5.85;100.00
7660;BME280;3872;47.902;8.162;2022-11-21T09:20:42;90954.34;;;5.43;100.00
7660;BME280;3872;47.902;8.162;2022-11-21T09:23:11;90945.88;;;5.51;100.00
7660;BME280;3872;47.902;8.162;2022-11-21T09:25:38;90943.47;;;5.03;100.00
7660;BME280;3872;47.902;8.162;2022-11-21T09:28:06;90940.22;;;5.95;100.00
7660;BME280;3872;47.902;8.162;2022-11-21T09:30:35;90947.28;;;5.43;100.00
7660;BME280;3872;47.902;8.162;2022-11-21T09:33:03;90945.16;;;5.97;100.00
7660;BME280;3872;47.902;8.162;2022-11-21T09:35:30;90949.91;;;5.43;100.00
7660;BME280;3872;47.902;8.162;2022-11-21T09:37:57;90940.28;;;5.90;100.00
7660;BME280;3872;47.902;8.162;2022-11-21T09:40:24;90947.16;;;6.00;100.00
7660;BME280;3872;47.902;8.162;2022-11-21T09:42:59;90932.31;;;5.68;100.00
7660;BME280;3872;47.902;8.162;2022-11-21T09:45:31;90931.72;;;6.17;100.00
7660;BME280;3872;47.902;8.162;2022-11-21T09:48:04;90918.84;;;6.07;100.00
7660;BME280;3872;47.902;8.162;2022-11-21T09:50:36;90910.22;;;6.34;100.00
7660;BME280;3872;47.902;8.162;2022-11-21T09:53:08;90914.88;;;6.64;100.00
7660;BME280;3872;47.902;8.162;2022-11-21T09:55:41;90914.69;;;6.33;100.00
7660;BME280;3872;47.902;8.162;2022-11-21T09:58:19;90909.34;;;5.97;100.00
7660;BME280;3872;47.902;8.162;2022-11-21T10:00:50;90926.09;;;5.31;100.00
7660;BME280;3872;47.902;8.162;2022-11-21T10:03:20;90914.25;;;5.20;100.00
7660;BME280;3872;47.902;8.162;2022-11-21T10:05:51;90908.50;;;5.69;100.00
7660;BME280;3872;47.902;8.162;2022-11-21T10:08:27;90910.34;;;6.15;100.00
7660;BME280;3872;47.902;8.162;2022-11-21T10:10:59;90906.97;;;5.03;100.00
7660;BME280;3872;47.902;8.162;2022-11-21T10:13:38;90899.16;;;5.68;100.00
7660;BME280;3872;47.902;8.162;2022-11-21T10:16:14;90886.56;;;5.84;100.00
7660;BME280;3872;47.902;8.162;2022-11-21T10:18:57;90886.88;;;5.82;100.00
7660;BME280;3872;47.902;8.162;2022-11-21T10:21:46;90886.38;;;5.34;100.00
7660;BME280;3872;47.902;8.162;2022-11-21T10:24:32;90883.72;;;5.39;100.00
7660;BME280;3872;47.902;8.162;2022-11-21T10:27:06;90874.91;;;6.36;100.00
7660;BME280;3872;47.902;8.162;2022-11-21T10:29:39;90864.34;;;6.55;100.00
7660;BME280;3872;47.902;8.162;2022-11-21T10:32:17;90860.75;;;5.23;100.00
7660;BME280;3872;47.902;8.162;2022-11-21T10:34:47;90855.44;;;5.74;100.00
7660;BME280;3872;47.902;8.162;2022-11-21T10:37:30;90853.44;;;6.12;100.00
7660;BME280;3872;47.902;8.162;2022-11-21T10:40:12;90840.47;;;6.20;100.00
7660;BME280;3872;47.902;8.162;2022-11-21T10:42:46;90833.13;;;5.68;100.00
7660;BME280;3872;47.902;8.162;2022-11-21T10:45:16;90832.16;;;6.18;100.00
7660;BME280;3872;47.902;8.162;2022-11-21T10:47:44;90836.34;;;5.92;100.00
7660;BME280;3872;47.902;8.162;2022-11-21T10:50:24;90829.00;;;6.57;100.00
7660;BME280;3872;47.902;8.162;2022-11-21T10:53:02;90834.84;;;5.86;100.00
7660;BME280;3872;47.902;8.162;2022-11-21T10:56:00;90817.41;;;6.86;100.00
7660;BME280;3872;47.902;8.162;2022-11-21T10:58:34;90809.25;;;6.02;100.00
7660;BME280;3872;47.902;8.162;2022-11-21T11:01:01;90806.88;;;6.77;100.00
7660;BME280;3872;47.902;8.162;2022-11-21T11:03:29;90794.53;;;6.55;100.00
7660;BME280;3872;47.902;8.162;2022-11-21T11:05:57;90784.50;;;6.49;100.00
7660;BME280;3872;47.902;8.162;2022-11-21T11:08:24;90778.56;;;7.55;100.00
7660;BME280;3872;47.902;8.162;2022-11-21T11:11:04;90771.13;;;6.50;100.00
7660;BME280;3872;47.902;8.162;2022-11-21T11:13:31;90765.22;;;6.81;100.00
7660;BME280;3872;47.902;8.162;2022-11-21T11:16:09;90750.19;;;6.86;100.00
7660;BME280;3872;47.902;8.162;2022-11-21T11:18:45;90743.88;;;8.45;100.00
7660;BME280;3872;47.902;8.162;2022-11-21T11:21:17;90740.03;;;7.46;100.00
7660;BME280;3872;47.902;8.162;2022-11-21T11:23:46;90741.75;;;7.20;100.00
7660;BME280;3872;47.902;8.162;2022-11-21T11:26:23;90735.47;;;8.26;100.00
7660;BME280;3872;47.902;8.162;2022-11-21T11:28:50;90728.91;;;8.80;100.00
7660;BME280;3872;47.902;8.162;2022-11-21T11:31:17;90722.88;;;8.54;100.00
7660;BME280;3872;47.902;8.162;2022-11-21T11:33:54;90708.53;;;8.60;100.00
7660;BME280;3872;47.902;8.162;2022-11-21T11:36:35;90716.03;;;8.01;100.00
7660;BME280;3872;47.902;8.162;2022-11-21T11:39:15;90716.25;;;7.65;100.00
7660;BME280;3872;47.902;8.162;2022-11-21T11:42:25;90707.97;;;7.89;100.00
7660;BME280;3872;47.902;8.162;2022-11-21T11:45:29;90693.22;;;8.02;100.00
7660;BME280;3872;47.902;8.162;2022-11-21T11:48:18;90684.31;;;8.29;100.00
7660;BME280;3872;47.902;8.162;2022-11-21T11:50:48;90680.19;;;8.45;100.00
7660;BME280;3872;47.902;8.162;2022-11-21T11:53:19;90675.69;;;8.62;100.00
7660;BME280;3872;47.902;8.162;2022-11-21T11:55:50;90672.44;;;8.48;100.00
7660;BME280;3872;47.902;8.162;2022-11-21T11:58:23;90673.34;;;8.09;100.00
7660;BME280;3872;47.902;8.162;2022-11-21T12:00:58;90659.78;;;8.24;100.00
7660;BME280;3872;47.902;8.162;2022-11-21T12:03:33;90649.13;;;8.73;100.00
7660;BME280;3872;47.902;8.162;2022-11-21T12:06:07;90640.50;;;8.63;100.00
7660;BME280;3872;47.902;8.162;2022-11-21T12:08:42;90633.06;;;8.83;100.00
7660;BME280;3872;47.902;8.162;2022-11-21T12:11:18;90618.81;;;9.01;100.00
7660;BME280;3872;47.902;8.162;2022-11-21T12:14:12;90606.81;;;9.59;100.00
7660;BME280;3872;47.902;8.162;2022-11-21T12:17:05;90604.66;;;9.81;100.00
7660;BME280;3872;47.902;8.162;2022-11-21T12:19:35;90602.50;;;10.04;100.00
7660;BME280;3872;47.902;8.162;2022-11-21T12:22:02;90599.41;;;8.93;100.00
7660;BME280;3872;47.902;8.162;2022-11-21T12:24:32;90584.28;;;9.58;100.00
7660;BME280;3872;47.902;8.162;2022-11-21T12:27:04;90579.44;;;9.60;96.48
7660;BME280;3872;47.902;8.162;2022-11-21T12:29:41;90583.00;;;9.34;97.90
7660;BME280;3872;47.902;8.162;2022-11-21T12:32:30;90574.66;;;9.03;100.00
7660;BME280;3872;47.902;8.162;2022-11-21T12:35:14;90563.81;;;9.13;100.00
7660;BME280;3872;47.902;8.162;2022-11-21T12:37:47;90560.16;;;9.35;96.38
7660;BME280;3872;47.902;8.162;2022-11-21T12:40:31;90543.56;;;9.22;96.82
7660;BME280;3872;47.902;8.162;2022-11-21T12:43:10;90543.78;;;9.09;100.00
7660;BME280;3872;47.902;8.162;2022-11-21T12:45:46;90549.81;;;8.62;100.00
7660;BME280;3872;47.902;8.162;2022-11-21T12:48:36;90537.09;;;9.11;100.00
7660;BME280;3872;47.902;8.162;2022-11-21T12:51:52;90524.78;;;9.32;100.00
7660;BME280;3872;47.902;8.162;2022-11-21T12:54:54;90521.59;;;9.27;100.00
7660;BME280;3872;47.902;8.162;2022-11-21T12:57:37;90516.84;;;9.20;100.00
7660;BME280;3872;47.902;8.162;2022-11-21T13:00:10;90514.63;;;9.01;100.00
7660;BME280;3872;47.902;8.162;2022-11-21T13:02:52;90499.78;;;9.56;100.00
7660;BME280;3872;47.902;8.162;2022-11-21T13:05:28;90503.69;;;9.70;100.00
7660;BME280;3872;47.902;8.162;2022-11-21T13:08:00;90504.75;;;9.28;100.00
7660;BME280;3872;47.902;8.162;2022-11-21T13:10:27;90506.84;;;9.14;100.00
7660;BME280;3872;47.902;8.162;2022-11-21T13:13:00;90503.66;;;9.08;100.00
7660;BME280;3872;47.902;8.162;2022-11-21T13:15:32;90498.84;;;9.31;100.00
7660;BME280;3872;47.902;8.162;2022-11-21T13:18:03;90488.88;;;8.66;100.00
7660;BME280;3872;47.902;8.162;2022-11-21T13:20:49;90485.63;;;8.98;100.00
7660;BME280;3872;47.902;8.162;2022-11-21T13:23:34;90481.91;;;8.99;100.00
7660;BME280;3872;47.902;8.162;2022-11-21T13:26:06;90482.84;;;8.74;100.00
7660;BME280;3872;47.902;8.162;2022-11-21T13:29:06;90477.78;;;8.60;100.00
7660;BME280;3872;47.902;8.162;2022-11-21T13:31:33;90485.75;;;8.34;100.00
7660;BME280;3872;47.902;8.162;2022-11-21T13:34:00;90466.91;;;8.41;100.00
7660;BME280;3872;47.902;8.162;2022-11-21T13:36:37;90458.28;;;8.40;100.00
7660;BME280;3872;47.902;8.162;2022-11-21T13:39:30;90457.25;;;8.24;100.00